createdAt,value
2023-01-28T00:00:12.359Z,68.38
2023-01-28T00:03:01.738Z,68.45
2023-01-28T00:05:30.833Z,68.34
2023-01-28T00:08:00.028Z,68.60
2023-01-28T00:10:29.003Z,68.69
2023-01-28T00:12:58.432Z,68.56
2023-01-28T00:15:27.135Z,68.61
2023-01-28T00:17:56.830Z,68.52
2023-01-28T00:20:25.914Z,68.47
2023-01-28T00:22:55.092Z,68.49
2023-01-28T00:25:24.289Z,68.46
2023-01-28T00:27:53.628Z,68.54
2023-01-28T00:30:22.124Z,68.34
2023-01-28T00:32:51.322Z,68.47
2023-01-28T00:35:22.415Z,68.38
2023-01-28T00:37:51.577Z,68.68
2023-01-28T00:40:21.125Z,68.46
2023-01-28T00:42:49.995Z,68.45
2023-01-28T00:45:18.592Z,68.37
2023-01-28T00:47:48.753Z,68.47
2023-01-28T00:50:18.162Z,68.43
2023-01-28T00:52:46.517Z,68.57
2023-01-28T00:55:16.562Z,68.59
2023-01-28T00:57:45.707Z,68.46
2023-01-28T01:00:15.723Z,68.53
2023-01-28T04:02:23.770Z,68.62
2023-01-28T04:04:54.540Z,68.63
2023-01-28T04:07:24.014Z,68.79
2023-01-28T04:10:21.457Z,68.72
2023-01-28T04:12:59.891Z,68.49
2023-01-28T04:15:28.787Z,68.70
2023-01-28T04:17:57.970Z,68.60
2023-01-28T04:20:32.582Z,68.55
2023-01-28T04:23:03.433Z,68.66
2023-01-28T04:25:33.272Z,68.44
2023-01-28T04:28:03.788Z,68.43
2023-01-28T04:30:33.260Z,68.52
2023-01-28T04:33:21.682Z,68.39
2023-01-28T04:36:02.398Z,68.55
2023-01-28T04:38:41.410Z,68.47
2023-01-28T04:41:25.192Z,68.48
2023-01-28T04:43:59.727Z,68.49
2023-01-28T04:46:29.080Z,68.58
2023-01-28T04:49:05.819Z,68.59
2023-01-28T04:51:54.424Z,68.64
2023-01-28T04:54:23.837Z,68.75
2023-01-28T04:56:54.095Z,68.40
2023-01-28T04:59:24.422Z,68.40
2023-01-28T05:01:55.202Z,68.37
2023-01-28T05:04:24.956Z,68.51
2023-01-28T05:06:54.690Z,68.65
2023-01-28T05:09:32.036Z,68.59
2023-01-28T05:12:01.475Z,68.30
2023-01-28T05:14:33.006Z,68.17
2023-01-28T05:17:07.393Z,68.38
2023-01-28T05:19:36.764Z,68.35
2023-01-28T05:22:09.724Z,68.30
2023-01-28T05:24:48.314Z,68.33
2023-01-28T05:27:16.988Z,68.24
2023-01-28T05:29:45.725Z,68.21
2023-01-28T05:32:14.309Z,68.44
2023-01-28T05:34:43.858Z,68.47
2023-01-28T05:37:14.468Z,68.44
2023-01-28T05:39:42.909Z,68.37
2023-01-28T05:42:12.090Z,68.29
2023-01-28T05:44:46.565Z,68.33
2023-01-28T05:47:24.959Z,68.22
2023-01-28T05:50:01.272Z,68.26
2023-01-28T05:52:41.157Z,68.30
2023-01-28T05:55:20.528Z,68.12
2023-01-28T05:57:50.389Z,68.05
2023-01-28T06:00:21.479Z,68.22
2023-01-28T06:02:52.324Z,68.52
2023-01-28T06:05:21.613Z,68.37
2023-01-28T06:07:51.817Z,68.34
2023-01-28T06:10:20.508Z,68.12
2023-01-28T06:12:49.410Z,68.30
2023-01-28T06:15:38.735Z,68.43
2023-01-28T06:18:27.571Z,68.26
2023-01-28T06:20:56.606Z,68.38
2023-01-28T06:23:24.914Z,68.33
2023-01-28T06:25:57.737Z,68.39
2023-01-28T06:28:26.644Z,68.39
2023-01-28T06:30:55.158Z,68.36
2023-01-28T06:33:24.391Z,68.16
2023-01-28T06:35:53.907Z,68.06
2023-01-28T06:38:23.555Z,68.19
2023-01-28T06:40:56.492Z,68.14
2023-01-28T06:43:28.260Z,68.07
2023-01-28T06:45:59.896Z,68.06
2023-01-28T06:48:29.252Z,68.10
2023-01-28T06:50:57.830Z,68.25
2023-01-28T06:53:26.531Z,68.49
2023-01-28T06:55:55.002Z,68.24
2023-01-28T06:58:24.167Z,68.25
2023-01-28T07:00:54.019Z,68.29
2023-01-28T07:03:23.166Z,68.38
2023-01-28T07:05:51.866Z,68.10
2023-01-28T07:08:20.890Z,68.03
2023-01-28T07:10:50.015Z,68.10
2023-01-28T07:13:19.218Z,68.22
2023-01-28T07:15:49.814Z,68.13
2023-01-28T07:18:19.373Z,68.06
2023-01-28T07:20:48.552Z,67.97
2023-01-28T07:23:17.695Z,68.05
2023-01-28T07:25:47.200Z,68.09
2023-01-28T07:28:22.020Z,68.22
2023-01-28T07:30:53.562Z,68.12
2023-01-28T07:33:23.462Z,68.18
2023-01-28T07:35:52.642Z,67.95
2023-01-28T07:38:21.584Z,67.98
2023-01-28T07:40:50.717Z,67.88
2023-01-28T07:43:19.998Z,67.96
2023-01-28T07:45:51.682Z,68.05
2023-01-28T07:48:21.020Z,68.12
2023-01-28T07:50:52.341Z,67.99
2023-01-28T07:53:22.111Z,67.82
2023-01-28T07:55:51.167Z,67.71
2023-01-28T07:58:20.214Z,67.71
2023-01-28T08:00:49.292Z,67.80
2023-01-28T08:03:18.691Z,67.76
2023-01-28T08:05:49.724Z,67.68
2023-01-28T08:08:19.572Z,67.82
2023-01-28T08:10:49.604Z,67.85
2023-01-28T08:13:19.746Z,68.07
2023-01-28T08:15:49.030Z,67.97
2023-01-28T08:18:17.898Z,67.80
2023-01-28T08:20:48.013Z,67.92
2023-01-28T08:23:21.967Z,67.71
2023-01-28T08:25:52.120Z,67.69
2023-01-28T08:28:22.316Z,67.78
2023-01-28T08:30:51.370Z,67.72
2023-01-28T08:33:20.722Z,67.72
2023-01-28T08:35:48.940Z,67.83
2023-01-28T08:38:18.043Z,67.76
2023-01-28T08:40:47.670Z,67.70
2023-01-28T08:43:16.593Z,67.57
2023-01-28T08:45:44.956Z,67.67
2023-01-28T08:48:17.875Z,67.66
2023-01-28T08:50:51.199Z,67.90
2023-01-28T08:53:21.205Z,67.75
2023-01-28T08:55:49.784Z,67.68
2023-01-28T08:58:19.408Z,67.72
2023-01-28T09:00:48.799Z,67.62
2023-01-28T09:03:18.469Z,67.50
2023-01-28T09:05:49.789Z,67.50
2023-01-28T09:08:18.674Z,67.61
2023-01-28T09:10:47.180Z,67.73
2023-01-28T09:13:16.293Z,67.36
2023-01-28T09:15:45.107Z,67.52
2023-01-28T09:18:13.660Z,67.70
2023-01-28T09:20:42.442Z,67.61
2023-01-28T09:23:12.171Z,67.29
2023-01-28T09:25:41.429Z,67.20
2023-01-28T09:28:09.892Z,67.51
2023-01-28T09:30:39.889Z,67.33
2023-01-28T09:33:08.951Z,67.45
2023-01-28T09:35:37.598Z,67.27
2023-01-28T09:38:06.776Z,67.21
2023-01-28T09:40:40.549Z,67.46
2023-01-28T09:43:19.300Z,67.19
2023-01-28T09:45:50.985Z,67.36
2023-01-28T09:48:53.918Z,67.38
2023-01-28T09:51:39.837Z,67.35
2023-01-28T09:54:36.570Z,67.21
2023-01-28T09:57:13.036Z,67.46
2023-01-28T09:59:41.759Z,66.94
2023-01-28T10:02:27.958Z,67.15
2023-01-28T10:05:15.503Z,67.16
2023-01-28T10:08:03.693Z,67.14
2023-01-28T10:10:44.934Z,67.14
2023-01-28T10:13:51.315Z,66.99
2023-01-28T10:16:29.124Z,67.24
2023-01-28T10:19:23.704Z,67.28
2023-01-28T10:22:01.105Z,67.12
2023-01-28T10:24:37.424Z,67.15
2023-01-28T10:27:20.888Z,66.87
2023-01-28T10:29:52.129Z,67.15
2023-01-28T10:32:29.492Z,66.97
2023-01-28T10:35:04.433Z,67.09
2023-01-28T10:37:37.893Z,66.92
2023-01-28T10:40:13.730Z,66.68
2023-01-28T10:42:43.133Z,66.85
2023-01-28T10:45:20.893Z,66.89
2023-01-28T10:48:14.607Z,66.79
2023-01-28T10:50:57.329Z,66.90
2023-01-28T10:53:41.032Z,67.00
2023-01-28T10:56:28.412Z,66.94
2023-01-28T10:59:05.343Z,66.82
2023-01-28T11:01:48.927Z,66.72
2023-01-28T11:04:24.644Z,66.87
2023-01-28T11:06:56.382Z,66.73
2023-01-28T11:09:29.007Z,66.76
2023-01-28T11:11:59.145Z,66.66
2023-01-28T11:14:28.620Z,66.81
2023-01-28T11:16:59.255Z,66.70
2023-01-28T11:19:39.572Z,66.65
2023-01-28T11:22:33.429Z,66.60
2023-01-28T11:25:06.859Z,66.51
2023-01-28T11:27:36.207Z,66.81
2023-01-28T11:30:05.837Z,66.59
2023-01-28T11:32:34.684Z,66.55
2023-01-28T11:35:06.360Z,66.50
2023-01-28T11:37:38.275Z,66.69
2023-01-28T11:40:23.993Z,66.75
2023-01-28T11:43:00.342Z,66.53
2023-01-28T11:45:53.129Z,66.55
2023-01-28T11:48:55.555Z,66.50
2023-01-28T11:51:44.032Z,66.39
2023-01-28T11:54:25.192Z,66.39
2023-01-28T11:57:02.727Z,66.43
2023-01-28T11:59:44.901Z,66.55
2023-01-28T12:02:49.553Z,66.36
2023-01-28T12:05:37.351Z,66.60
2023-01-28T12:08:12.488Z,66.63
2023-01-28T12:11:10.979Z,66.58
2023-01-28T12:13:58.903Z,66.51
2023-01-28T12:16:46.128Z,66.53
2023-01-28T12:19:52.664Z,66.36
2023-01-28T12:22:36.775Z,66.14
2023-01-28T12:25:11.016Z,66.21
2023-01-28T12:28:21.011Z,66.29
2023-01-28T12:30:58.807Z,66.49
2023-01-28T12:33:38.139Z,66.24
2023-01-28T12:36:39.465Z,66.32
2023-01-28T12:39:27.627Z,66.08
2023-01-28T12:42:11.608Z,66.44
2023-01-28T12:45:17.071Z,66.00
2023-01-28T12:47:55.720Z,66.35
2023-01-28T12:50:41.352Z,66.17
2023-01-28T12:53:37.587Z,66.01
2023-01-28T12:56:17.436Z,66.07
2023-01-28T12:59:13.798Z,66.00
2023-01-28T13:01:52.665Z,65.75
2023-01-28T13:04:30.698Z,65.89
2023-01-28T13:07:07.051Z,65.86
2023-01-28T13:09:39.645Z,65.64
2023-01-28T13:12:13.922Z,65.87
2023-01-28T13:14:44.345Z,65.94
2023-01-28T13:17:32.462Z,65.79
2023-01-28T13:20:01.195Z,65.60
2023-01-28T13:22:36.132Z,65.92
2023-01-28T13:25:51.240Z,65.55
2023-01-28T13:28:40.002Z,65.79
2023-01-28T13:31:35.430Z,65.76
2023-01-28T13:34:05.943Z,65.70
2023-01-28T13:36:54.963Z,65.59
2023-01-28T13:39:26.766Z,65.70
2023-01-28T13:42:33.616Z,65.68
2023-01-28T13:45:23.137Z,65.65
2023-01-28T13:48:41.334Z,65.79
2023-01-28T13:51:19.089Z,65.80
2023-01-28T13:53:57.020Z,65.84
2023-01-28T13:57:00.691Z,65.81
2023-01-28T14:00:18.151Z,65.76
2023-01-28T14:03:03.003Z,65.47
2023-01-28T14:05:57.775Z,65.39
2023-01-28T14:08:51.176Z,65.38
2023-01-28T14:12:07.120Z,65.23
2023-01-28T14:15:13.877Z,65.31
2023-01-28T14:17:46.345Z,65.39
2023-01-28T14:20:33.268Z,65.39
2023-01-28T14:23:04.097Z,65.31
2023-01-28T14:25:47.575Z,65.24
2023-01-28T14:28:41.070Z,65.36
2023-01-28T14:31:17.195Z,65.25
2023-01-28T14:33:47.496Z,65.32
2023-01-28T14:36:16.449Z,65.31
2023-01-28T14:38:47.097Z,65.17
2023-01-28T14:41:33.803Z,65.12
2023-01-28T14:44:02.721Z,64.99
2023-01-28T14:46:37.567Z,65.04
2023-01-28T14:49:35.995Z,65.18
2023-01-28T14:52:17.386Z,64.96
2023-01-28T14:54:59.172Z,65.04
2023-01-28T14:57:34.556Z,65.12
2023-01-28T15:00:08.348Z,65.21
2023-01-28T15:02:45.290Z,65.39
2023-01-28T15:05:28.374Z,65.28
2023-01-28T15:07:56.832Z,65.23
2023-01-28T15:10:31.679Z,65.13
2023-01-28T15:13:09.214Z,65.05
2023-01-28T15:15:47.111Z,64.95
2023-01-28T15:18:23.733Z,65.39
2023-01-28T15:20:56.030Z,65.15
2023-01-28T15:23:43.825Z,65.25
2023-01-28T15:26:25.972Z,65.09
2023-01-28T15:28:56.665Z,64.97
2023-01-28T15:31:35.615Z,64.88
2023-01-28T15:34:11.365Z,64.86
2023-01-28T15:36:40.899Z,64.51
2023-01-28T15:39:23.917Z,64.60
2023-01-28T15:41:56.559Z,64.62
2023-01-28T15:44:39.292Z,64.31
2023-01-28T15:47:22.366Z,64.38
2023-01-28T15:49:55.111Z,64.32
2023-01-28T15:52:33.585Z,64.56
2023-01-28T15:55:03.608Z,64.49
2023-01-28T15:57:34.874Z,64.38
2023-01-28T16:00:06.073Z,64.30
2023-01-28T16:02:51.824Z,64.06
2023-01-28T16:05:42.325Z,64.34
2023-01-28T16:08:59.267Z,64.19
2023-01-28T16:11:32.998Z,64.16
2023-01-28T16:14:02.099Z,64.08
2023-01-28T16:16:32.379Z,63.94
2023-01-28T16:19:05.566Z,64.23
2023-01-28T16:21:47.744Z,64.03
2023-01-28T16:24:47.985Z,63.90
2023-01-28T16:27:25.287Z,64.15
2023-01-28T16:29:54.475Z,64.14
2023-01-28T16:32:37.653Z,63.89
2023-01-28T16:35:19.087Z,63.71
2023-01-28T16:37:49.480Z,63.93
2023-01-28T16:40:20.918Z,63.64
2023-01-28T16:42:50.169Z,63.57
2023-01-28T16:45:21.832Z,63.66
2023-01-28T16:47:54.792Z,63.57
2023-01-28T16:50:23.565Z,63.42
2023-01-28T16:52:55.120Z,63.39
2023-01-28T16:55:24.001Z,63.61
2023-01-28T16:57:56.187Z,63.36
2023-01-28T17:00:27.211Z,63.23
2023-01-28T17:02:55.565Z,63.24
2023-01-28T17:05:25.062Z,63.27
2023-01-28T17:07:56.567Z,63.33
2023-01-28T17:10:26.037Z,63.02
2023-01-28T17:12:54.946Z,63.24
2023-01-28T17:15:24.198Z,63.15
2023-01-28T17:17:54.029Z,63.31
2023-01-28T17:20:22.658Z,63.15
2023-01-28T17:22:51.268Z,63.06
2023-01-28T17:25:19.760Z,63.02
2023-01-28T17:27:50.396Z,63.12
2023-01-28T17:30:20.603Z,63.05
2023-01-28T17:32:48.688Z,63.13
2023-01-28T17:35:17.633Z,63.10
2023-01-28T17:37:46.863Z,63.09
2023-01-28T17:40:15.921Z,63.07
2023-01-28T17:42:44.349Z,63.15
2023-01-28T17:45:12.601Z,63.21
2023-01-28T17:47:41.768Z,63.10
2023-01-28T17:50:12.436Z,63.14
2023-01-28T17:52:41.367Z,63.06
2023-01-28T17:55:12.628Z,63.12
2023-01-28T17:57:44.615Z,63.10
2023-01-28T18:00:14.691Z,63.19
2023-01-28T18:02:43.877Z,63.01
2023-01-28T18:05:13.084Z,63.04
2023-01-28T18:07:44.763Z,63.03
2023-01-28T18:10:17.290Z,63.18
2023-01-28T18:12:46.723Z,62.93
2023-01-28T18:15:15.841Z,63.02
2023-01-28T18:17:45.674Z,62.88
2023-01-28T18:20:14.605Z,62.91
2023-01-28T18:22:43.991Z,62.90
2023-01-28T18:25:18.956Z,62.88
2023-01-28T18:27:48.414Z,63.01
2023-01-28T18:30:18.812Z,63.01
2023-01-28T18:32:47.625Z,62.82
2023-01-28T18:35:17.244Z,62.97
2023-01-28T18:37:46.936Z,63.11
2023-01-28T18:40:16.563Z,63.06
2023-01-28T18:42:45.857Z,63.14
2023-01-28T18:45:14.610Z,63.01
2023-01-28T18:47:43.858Z,63.09
2023-01-28T18:50:13.091Z,63.00
2023-01-28T18:52:43.019Z,63.01
2023-01-28T18:55:12.061Z,63.04
2023-01-28T18:57:40.756Z,62.89
2023-01-28T19:00:10.325Z,63.24
2023-01-28T19:02:39.205Z,62.92
2023-01-28T19:05:09.150Z,62.85
2023-01-28T19:07:37.679Z,62.96
2023-01-28T19:10:06.808Z,62.74
2023-01-28T19:12:35.840Z,63.14
2023-01-28T19:15:04.879Z,63.08
2023-01-28T19:17:35.405Z,62.86
2023-01-28T19:20:06.790Z,62.78
2023-01-28T19:22:35.256Z,62.88
2023-01-28T19:25:04.800Z,62.78
2023-01-28T19:27:33.932Z,62.61
2023-01-28T19:30:02.202Z,62.69
2023-01-28T19:32:30.569Z,62.71
2023-01-28T19:34:59.549Z,62.70
2023-01-28T19:37:29.011Z,62.84
2023-01-28T19:39:57.376Z,62.66
2023-01-28T19:42:26.124Z,62.73
2023-01-28T19:44:54.572Z,62.73
2023-01-28T19:47:23.491Z,62.70
2023-01-28T19:49:51.892Z,62.51
2023-01-28T19:52:20.317Z,62.65
2023-01-28T19:54:48.669Z,62.56
2023-01-28T19:57:17.007Z,62.60
2023-01-28T19:59:45.466Z,62.68
2023-01-28T20:02:14.242Z,62.74
2023-01-28T20:04:54.845Z,62.59
2023-01-28T20:07:29.053Z,62.50
2023-01-28T20:09:57.485Z,62.58
2023-01-28T20:12:26.256Z,62.28
2023-01-28T20:14:54.790Z,62.73
2023-01-28T20:17:23.414Z,62.63
2023-01-28T20:19:52.379Z,62.49
2023-01-28T20:22:22.276Z,62.62
2023-01-28T20:24:57.376Z,62.60
2023-01-28T20:27:26.634Z,62.55
2023-01-28T20:29:55.324Z,62.37
2023-01-28T20:32:24.075Z,62.41
2023-01-28T20:34:53.142Z,62.54
2023-01-28T20:37:21.469Z,62.16
2023-01-28T20:39:49.769Z,62.37
2023-01-28T20:42:18.310Z,62.51
2023-01-28T20:44:46.936Z,62.40
2023-01-28T20:47:16.315Z,62.51
2023-01-28T20:49:45.404Z,62.46
2023-01-28T20:52:13.954Z,62.35
2023-01-28T20:54:42.932Z,62.32
2023-01-28T20:57:11.361Z,62.52
2023-01-28T20:59:40.043Z,62.48
2023-01-28T21:02:10.661Z,62.42
2023-01-28T21:04:39.316Z,62.49
2023-01-28T21:07:09.599Z,62.54
2023-01-28T21:09:38.071Z,62.43
2023-01-28T21:12:07.462Z,62.43
2023-01-28T21:14:36.860Z,62.39
2023-01-28T21:17:05.249Z,62.37
2023-01-28T21:19:34.436Z,62.29
2023-01-28T21:22:03.154Z,62.46
2023-01-28T21:24:32.056Z,62.39
2023-01-28T21:27:01.111Z,62.47
2023-01-28T21:29:29.860Z,62.54
2023-01-28T21:31:58.484Z,62.48
2023-01-28T21:34:27.011Z,62.49
2023-01-28T21:36:55.454Z,62.30
2023-01-28T21:39:24.704Z,62.38
2023-01-28T21:41:53.205Z,62.46
2023-01-28T21:44:22.166Z,62.39
2023-01-28T21:46:50.888Z,62.43
2023-01-28T21:49:19.844Z,62.52
2023-01-28T21:51:49.147Z,62.39
2023-01-28T21:54:20.941Z,62.48
2023-01-28T21:56:51.850Z,62.28
2023-01-28T21:59:32.700Z,62.39
2023-01-28T22:02:02.834Z,62.54
2023-01-28T22:04:34.458Z,62.46
2023-01-28T22:07:06.264Z,62.43
2023-01-28T22:09:36.335Z,62.41
2023-01-28T22:12:10.511Z,62.35
2023-01-28T22:14:39.838Z,62.62
2023-01-28T22:17:12.059Z,62.39
2023-01-28T22:19:47.881Z,62.49
2023-01-28T22:22:17.420Z,62.48
2023-01-28T22:24:46.077Z,62.43
2023-01-28T22:27:16.533Z,62.47
2023-01-28T22:29:45.380Z,62.40
2023-01-28T22:32:14.806Z,62.55
2023-01-28T22:34:46.830Z,62.52
2023-01-28T22:37:16.454Z,62.51
2023-01-28T22:39:45.486Z,62.40
2023-01-28T22:42:14.638Z,62.40
2023-01-28T22:44:43.113Z,62.52
2023-01-28T22:47:12.326Z,62.56
2023-01-28T22:49:41.174Z,62.49
2023-01-28T22:52:10.155Z,62.54
2023-01-28T22:54:39.648Z,62.58
2023-01-28T22:57:08.215Z,62.47
2023-01-28T22:59:36.789Z,62.60
2023-01-28T23:02:05.638Z,62.49
2023-01-28T23:04:34.067Z,62.51
2023-01-28T23:07:02.943Z,62.61
2023-01-28T23:09:31.576Z,62.54
2023-01-28T23:12:00.707Z,62.68
2023-01-28T23:14:48.299Z,62.62
2023-01-28T23:17:36.454Z,62.55
2023-01-28T23:20:24.681Z,62.62
2023-01-28T23:23:12.079Z,62.75
2023-01-28T23:25:40.920Z,62.79
2023-01-28T23:28:10.247Z,62.83
2023-01-28T23:30:39.209Z,62.42
2023-01-28T23:33:07.995Z,62.61
2023-01-28T23:35:37.302Z,62.62
2023-01-28T23:38:05.699Z,62.53
2023-01-28T23:40:35.142Z,62.55
2023-01-28T23:43:04.877Z,62.49
2023-01-28T23:45:34.311Z,62.32
2023-01-28T23:48:07.995Z,62.52
2023-01-28T23:50:36.908Z,62.47
2023-01-28T23:53:13.435Z,62.53
2023-01-28T23:55:42.309Z,62.59
2023-01-28T23:58:11.389Z,62.53
